createdAt,value
2022-09-25T00:01:19.887Z,59.13
2022-09-25T00:03:48.015Z,59.16
2022-09-25T00:06:18.486Z,59.04
2022-09-25T00:08:46.590Z,58.84
2022-09-25T00:11:17.217Z,59.10
2022-09-25T00:13:46.082Z,59.00
2022-09-25T00:16:18.950Z,59.23
2022-09-25T00:19:05.049Z,59.24
2022-09-25T00:21:35.212Z,59.41
2022-09-25T00:24:06.098Z,59.14
2022-09-25T00:26:37.474Z,59.09
2022-09-25T00:29:07.063Z,58.90
2022-09-25T00:31:35.669Z,58.89
2022-09-25T00:34:05.614Z,59.14
2022-09-25T00:36:34.119Z,59.00
2022-09-25T00:39:01.462Z,59.24
2022-09-25T00:41:33.625Z,59.13
2022-09-25T00:44:23.970Z,59.09
2022-09-25T00:46:52.715Z,59.25
2022-09-25T00:49:24.620Z,59.23
2022-09-25T00:51:58.808Z,59.25
2022-09-25T00:54:31.537Z,59.26
2022-09-25T00:57:06.543Z,59.26
2022-09-25T00:59:39.583Z,59.49
2022-09-25T01:02:14.379Z,59.39
2022-09-25T01:04:48.433Z,59.46
2022-09-25T01:07:16.870Z,59.43
2022-09-25T01:09:45.494Z,59.69
2022-09-25T01:12:12.881Z,59.61
2022-09-25T01:14:41.500Z,59.62
2022-09-25T01:17:22.027Z,59.49
2022-09-25T01:20:08.395Z,59.52
2022-09-25T01:22:55.297Z,59.54
2022-09-25T01:25:39.642Z,59.38
2022-09-25T01:28:53.958Z,59.62
2022-09-25T01:31:29.875Z,59.48
2022-09-25T01:34:05.960Z,59.48
2022-09-25T01:36:41.667Z,59.52
2022-09-25T01:39:21.034Z,59.40
2022-09-25T01:41:55.028Z,59.47
2022-09-25T01:44:30.473Z,59.41
2022-09-25T01:47:07.473Z,59.70
2022-09-25T01:49:42.516Z,59.57
2022-09-25T01:52:17.206Z,59.57
2022-09-25T01:54:51.825Z,59.87
2022-09-25T01:57:26.847Z,59.78
2022-09-25T02:00:04.756Z,59.51
2022-09-25T02:02:38.152Z,59.74
2022-09-25T02:05:14.455Z,59.53
2022-09-25T02:07:48.102Z,59.60
2022-09-25T02:10:21.839Z,59.51
2022-09-25T02:12:56.939Z,59.62
2022-09-25T02:15:31.109Z,59.34
2022-09-25T02:18:21.807Z,59.56
2022-09-25T02:21:01.348Z,59.16
2022-09-25T02:23:40.205Z,59.48
2022-09-25T02:26:14.655Z,59.73
2022-09-25T02:28:43.379Z,59.83
2022-09-25T02:31:17.275Z,59.49
2022-09-25T02:33:44.723Z,59.49
2022-09-25T02:36:19.137Z,58.94
2022-09-25T02:38:50.259Z,59.25
2022-09-25T02:41:36.753Z,58.73
2022-09-25T02:44:17.732Z,58.86
2022-09-25T02:47:03.210Z,58.47
2022-09-25T02:49:40.460Z,58.76
2022-09-25T02:52:16.472Z,58.30
2022-09-25T02:54:53.347Z,58.36
2022-09-25T02:57:31.543Z,58.71
2022-09-25T03:00:07.223Z,58.30
2022-09-25T03:02:38.958Z,58.70
2022-09-25T03:05:12.555Z,58.80
2022-09-25T03:07:59.327Z,58.47
2022-09-25T03:10:29.181Z,58.52
2022-09-25T03:12:56.402Z,58.68
2022-09-25T03:15:25.029Z,58.79
2022-09-25T03:17:53.660Z,58.55
2022-09-25T03:20:20.880Z,58.57
2022-09-25T03:22:48.183Z,58.70
2022-09-25T03:25:16.169Z,59.07
2022-09-25T03:27:43.451Z,59.09
2022-09-25T03:30:11.845Z,59.32
2022-09-25T03:32:39.100Z,58.83
2022-09-25T03:35:09.174Z,58.86
2022-09-25T03:37:36.409Z,58.84
2022-09-25T03:40:04.901Z,58.88
2022-09-25T03:42:32.265Z,59.18
2022-09-25T03:44:59.541Z,59.24
2022-09-25T03:47:26.839Z,59.17
2022-09-25T03:49:54.137Z,59.19
2022-09-25T03:52:22.762Z,59.32
2022-09-25T03:54:50.000Z,59.48
2022-09-25T03:57:17.219Z,59.02
2022-09-25T03:59:44.467Z,59.01
2022-09-25T04:02:15.692Z,58.83
2022-09-25T04:04:44.650Z,58.91
2022-09-25T04:07:12.398Z,59.22
2022-09-25T04:09:41.039Z,58.94
2022-09-25T04:12:08.956Z,59.22
2022-09-25T04:14:36.905Z,59.16
2022-09-25T04:17:04.311Z,59.23
2022-09-25T04:19:31.615Z,59.32
2022-09-25T04:21:58.863Z,59.28
2022-09-25T04:24:44.517Z,59.34
2022-09-25T04:27:13.091Z,59.25
2022-09-25T04:29:42.429Z,59.30
2022-09-25T04:32:28.450Z,59.41
2022-09-25T04:34:55.907Z,59.40
2022-09-25T04:37:26.289Z,59.49
2022-09-25T04:39:54.102Z,59.56
2022-09-25T04:42:25.075Z,59.52
2022-09-25T04:44:53.804Z,59.66
2022-09-25T04:47:21.332Z,59.63
2022-09-25T04:49:49.637Z,59.78
2022-09-25T04:52:19.042Z,60.02
2022-09-25T04:54:46.958Z,59.79
2022-09-25T04:57:32.671Z,60.01
2022-09-25T05:00:06.978Z,60.20
2022-09-25T05:02:34.725Z,60.32
2022-09-25T05:05:02.048Z,60.10
2022-09-25T05:07:29.606Z,60.06
2022-09-25T05:09:56.854Z,60.28
2022-09-25T05:12:24.224Z,60.23
2022-09-25T05:14:51.478Z,59.95
2022-09-25T05:17:20.088Z,59.97
2022-09-25T05:19:47.322Z,59.99
2022-09-25T05:22:15.526Z,59.94
2022-09-25T05:24:42.732Z,59.98
2022-09-25T05:27:10.053Z,60.06
2022-09-25T05:29:38.459Z,60.35
2022-09-25T05:32:06.666Z,60.04
2022-09-25T05:34:35.284Z,60.07
2022-09-25T05:37:03.696Z,60.05
2022-09-25T05:39:30.939Z,60.27
2022-09-25T05:41:58.246Z,60.33
2022-09-25T05:44:28.356Z,60.21
2022-09-25T05:49:51.479Z,60.52
2022-09-25T05:52:18.748Z,60.62
2022-09-25T05:54:46.793Z,60.55
2022-09-25T05:57:14.046Z,60.42
2022-09-25T05:59:41.346Z,60.43
2022-09-25T06:02:12.006Z,60.17
2022-09-25T06:04:39.266Z,60.21
2022-09-25T06:07:09.953Z,60.22
2022-09-25T06:09:37.220Z,60.33
2022-09-25T06:12:04.913Z,60.35
2022-09-25T06:14:32.949Z,60.46
2022-09-25T06:17:00.327Z,60.39
2022-09-25T06:19:29.818Z,60.36
2022-09-25T06:22:00.443Z,60.17
2022-09-25T06:24:29.011Z,60.14
2022-09-25T06:26:56.262Z,60.13
2022-09-25T06:29:23.560Z,60.27
2022-09-25T06:31:53.031Z,60.14
2022-09-25T06:34:20.293Z,60.15
2022-09-25T06:36:47.634Z,60.08
2022-09-25T06:39:14.930Z,60.00
2022-09-25T06:41:44.053Z,60.21
2022-09-25T06:44:11.413Z,60.25
2022-09-25T06:46:38.725Z,60.14
2022-09-25T06:49:06.101Z,59.80
2022-09-25T06:51:35.471Z,58.88
2022-09-25T06:54:03.011Z,58.27
2022-09-25T06:56:30.322Z,57.59
2022-09-25T06:58:59.058Z,56.97
2022-09-25T07:01:26.318Z,56.12
2022-09-25T07:03:53.643Z,55.95
2022-09-25T07:06:23.009Z,55.26
2022-09-25T07:08:52.060Z,55.52
2022-09-25T07:11:22.077Z,55.00
2022-09-25T07:13:52.410Z,54.85
2022-09-25T07:16:23.788Z,55.03
2022-09-25T07:18:54.248Z,55.05
2022-09-25T07:21:24.560Z,55.24
2022-09-25T07:23:52.711Z,55.23
2022-09-25T07:26:23.365Z,54.97
2022-09-25T07:28:56.171Z,54.91
2022-09-25T07:31:27.797Z,55.35
2022-09-25T07:33:55.967Z,55.42
2022-09-25T07:36:23.461Z,55.41
2022-09-25T07:38:52.095Z,55.56
2022-09-25T07:41:22.648Z,55.88
2022-09-25T07:44:02.004Z,55.56
2022-09-25T07:46:44.419Z,55.44
2022-09-25T07:49:12.775Z,55.69
2022-09-25T07:51:40.105Z,55.38
2022-09-25T07:54:08.182Z,55.38
2022-09-25T07:56:38.020Z,54.99
2022-09-25T07:59:05.705Z,55.43
2022-09-25T08:01:33.068Z,55.02
2022-09-25T08:04:02.214Z,54.90
2022-09-25T08:06:29.527Z,54.38
2022-09-25T08:08:58.529Z,54.83
2022-09-25T08:11:28.023Z,54.39
2022-09-25T08:13:55.285Z,53.30
2022-09-25T08:16:23.294Z,52.79
2022-09-25T08:18:50.871Z,52.06
2022-09-25T08:21:20.810Z,51.26
2022-09-25T08:23:51.755Z,50.39
2022-09-25T08:26:21.508Z,50.20
2022-09-25T08:28:49.305Z,48.84
2022-09-25T08:31:16.682Z,48.19
2022-09-25T08:33:49.340Z,46.76
2022-09-25T08:36:19.175Z,45.26
2022-09-25T08:38:46.726Z,43.28
2022-09-25T08:41:22.170Z,43.84
2022-09-25T08:44:00.438Z,43.07
2022-09-25T08:46:59.559Z,43.15
2022-09-25T08:49:35.002Z,43.87
2022-09-25T08:52:11.435Z,43.80
2022-09-25T08:54:43.393Z,40.69
2022-09-25T08:57:27.251Z,39.94
2022-09-25T09:00:04.706Z,38.01
2022-09-25T09:02:40.587Z,36.09
2022-09-25T09:05:19.467Z,34.41
2022-09-25T09:07:57.215Z,34.58
2022-09-25T09:10:36.012Z,33.39
2022-09-25T09:13:16.616Z,32.03
2022-09-25T09:15:53.043Z,32.40
2022-09-25T09:18:24.668Z,32.87
2022-09-25T09:20:56.232Z,33.17
2022-09-25T09:23:36.775Z,34.02
2022-09-25T09:26:09.953Z,34.87
2022-09-25T09:29:39.511Z,35.92
2022-09-25T09:32:39.985Z,36.14
2022-09-25T09:35:33.453Z,36.46
2022-09-25T09:38:28.407Z,36.03
2022-09-25T09:41:21.736Z,36.05
2022-09-25T09:44:15.574Z,35.42
2022-09-25T09:46:56.608Z,35.75
2022-09-25T09:49:33.261Z,35.70
2022-09-25T09:52:10.611Z,35.36
2022-09-25T09:54:46.571Z,35.80
2022-09-25T09:57:23.214Z,34.77
2022-09-25T10:00:02.024Z,35.09
2022-09-25T10:02:39.823Z,35.88
2022-09-25T10:05:18.033Z,35.07
2022-09-25T10:07:49.663Z,34.34
2022-09-25T10:10:20.065Z,33.20
2022-09-25T10:12:51.295Z,32.13
2022-09-25T10:15:30.321Z,31.91
2022-09-25T10:18:02.032Z,31.04
2022-09-25T10:20:40.555Z,30.84
2022-09-25T10:23:32.020Z,30.77
2022-09-25T10:26:00.910Z,31.75
2022-09-25T10:28:32.449Z,32.44
2022-09-25T10:31:02.758Z,32.45
2022-09-25T10:33:31.958Z,32.72
2022-09-25T10:35:59.906Z,33.24
2022-09-25T10:38:39.394Z,34.09
2022-09-25T10:41:12.332Z,34.48
2022-09-25T10:44:02.241Z,35.09
2022-09-25T10:46:51.060Z,35.60
2022-09-25T10:49:39.338Z,35.44
2022-09-25T10:52:10.537Z,35.85
2022-09-25T10:54:44.560Z,36.36
2022-09-25T10:57:35.353Z,37.40
2022-09-25T11:00:06.079Z,37.73
2022-09-25T11:02:40.195Z,38.55
2022-09-25T11:05:18.171Z,38.57
2022-09-25T11:07:52.346Z,38.94
2022-09-25T11:10:22.453Z,38.48
2022-09-25T11:12:52.576Z,38.75
2022-09-25T11:15:23.949Z,39.19
2022-09-25T11:17:54.276Z,39.35
2022-09-25T11:20:32.734Z,39.33
2022-09-25T11:23:28.362Z,40.38
2022-09-25T11:26:06.971Z,40.93
2022-09-25T11:28:45.313Z,41.02
2022-09-25T11:31:22.395Z,41.39
2022-09-25T11:34:01.912Z,41.34
2022-09-25T11:36:35.469Z,42.06
2022-09-25T11:39:29.873Z,42.42
2022-09-25T11:42:07.102Z,42.71
2022-09-25T11:44:46.124Z,42.88
2022-09-25T11:47:21.373Z,43.59
2022-09-25T11:49:53.290Z,43.75
2022-09-25T11:52:32.465Z,43.78
2022-09-25T11:55:47.070Z,43.95
2022-09-25T11:58:47.373Z,43.85
2022-09-25T12:01:29.600Z,44.27
2022-09-25T12:04:23.160Z,44.23
2022-09-25T12:07:25.728Z,44.37
2022-09-25T12:10:19.177Z,44.47
2022-09-25T12:12:59.252Z,44.49
2022-09-25T12:15:48.096Z,43.89
2022-09-25T12:18:42.306Z,43.78
2022-09-25T12:21:19.429Z,43.91
2022-09-25T12:23:57.980Z,44.03
2022-09-25T12:26:33.917Z,44.05
2022-09-25T12:29:26.072Z,43.71
2022-09-25T12:32:04.663Z,43.57
2022-09-25T12:34:59.081Z,43.64
2022-09-25T12:37:40.235Z,43.04
2022-09-25T12:40:22.926Z,42.59
2022-09-25T12:42:59.056Z,42.74
2022-09-25T12:45:36.258Z,42.68
2022-09-25T12:48:18.787Z,42.58
2022-09-25T12:51:00.415Z,42.83
2022-09-25T12:53:36.642Z,43.19
2022-09-25T12:56:13.650Z,43.06
2022-09-25T12:58:57.490Z,43.30
2022-09-25T13:01:33.395Z,43.34
2022-09-25T13:04:23.112Z,43.32
2022-09-25T13:07:04.024Z,42.57
2022-09-25T13:09:42.223Z,43.11
2022-09-25T13:12:24.914Z,42.98
2022-09-25T13:14:58.617Z,42.71
2022-09-25T13:17:26.143Z,43.22
2022-09-25T13:19:53.560Z,43.33
2022-09-25T13:22:25.136Z,43.01
2022-09-25T13:25:02.826Z,43.16
2022-09-25T13:27:42.614Z,42.88
2022-09-25T13:30:22.743Z,42.35
2022-09-25T13:32:53.627Z,42.51
2022-09-25T13:35:23.877Z,42.02
2022-09-25T13:37:56.814Z,41.91
2022-09-25T13:40:43.089Z,42.00
2022-09-25T13:43:23.237Z,42.05
2022-09-25T13:46:26.058Z,40.21
2022-09-25T13:48:55.448Z,40.69
2022-09-25T13:51:36.250Z,40.43
2022-09-25T13:54:25.347Z,40.33
2022-09-25T13:56:55.333Z,40.15
2022-09-25T13:59:38.056Z,39.97
2022-09-25T14:02:44.187Z,39.86
2022-09-25T14:05:19.151Z,39.55
2022-09-25T14:07:49.994Z,39.08
2022-09-25T14:10:19.130Z,38.53
2022-09-25T14:12:49.738Z,38.70
2022-09-25T14:15:24.552Z,38.13
2022-09-25T14:17:57.274Z,38.18
2022-09-25T14:20:36.225Z,38.24
2022-09-25T14:23:13.886Z,37.97
2022-09-25T14:25:44.702Z,38.03
2022-09-25T14:28:22.486Z,38.38
2022-09-25T14:31:19.235Z,38.33
2022-09-25T14:34:14.688Z,38.13
2022-09-25T14:37:03.780Z,38.74
2022-09-25T14:39:44.716Z,38.63
2022-09-25T14:42:52.220Z,38.95
2022-09-25T14:45:42.835Z,39.06
2022-09-25T14:48:14.959Z,39.01
2022-09-25T14:50:49.737Z,38.95
2022-09-25T14:53:25.970Z,39.12
2022-09-25T14:55:55.103Z,39.51
2022-09-25T14:58:28.839Z,39.66
2022-09-25T15:01:04.832Z,39.35
2022-09-25T15:03:37.537Z,39.17
2022-09-25T15:06:06.433Z,38.47
2022-09-25T15:08:40.931Z,37.42
2022-09-25T15:11:13.674Z,37.05
2022-09-25T15:13:42.397Z,36.54
2022-09-25T15:16:35.997Z,36.49
2022-09-25T15:19:13.807Z,36.71
2022-09-25T15:21:43.988Z,36.37
2022-09-25T15:24:18.092Z,36.90
2022-09-25T15:26:50.212Z,36.72
2022-09-25T15:29:22.895Z,37.20
2022-09-25T15:31:51.952Z,37.27
2022-09-25T15:34:25.761Z,37.35
2022-09-25T15:36:54.547Z,36.73
2022-09-25T15:39:25.574Z,36.93
2022-09-25T15:41:53.806Z,37.54
2022-09-25T15:44:23.419Z,37.93
2022-09-25T15:46:53.711Z,37.88
2022-09-25T15:49:29.214Z,37.78
2022-09-25T15:52:01.384Z,37.72
2022-09-25T15:54:38.324Z,38.31
2022-09-25T15:57:11.318Z,38.31
2022-09-25T16:00:03.204Z,38.36
2022-09-25T16:02:54.413Z,38.10
2022-09-25T16:05:30.046Z,38.29
2022-09-25T16:08:27.508Z,38.92
2022-09-25T16:11:17.391Z,38.74
2022-09-25T16:13:48.745Z,39.11
2022-09-25T16:16:24.881Z,39.25
2022-09-25T16:18:54.576Z,38.98
2022-09-25T16:21:30.736Z,39.40
2022-09-25T16:24:02.812Z,39.74
2022-09-25T16:26:38.456Z,39.57
2022-09-25T16:29:19.991Z,40.16
2022-09-25T16:31:48.457Z,39.92
2022-09-25T16:34:26.177Z,40.49
2022-09-25T16:36:58.210Z,40.11
2022-09-25T16:39:31.311Z,40.29
2022-09-25T16:42:00.175Z,40.61
2022-09-25T16:44:46.805Z,40.70
2022-09-25T16:47:18.839Z,40.46
2022-09-25T16:49:47.064Z,41.11
2022-09-25T16:52:20.594Z,41.43
2022-09-25T16:54:56.853Z,41.14
2022-09-25T16:57:27.859Z,41.53
2022-09-25T16:59:55.639Z,41.70
2022-09-25T17:02:33.322Z,41.84
2022-09-25T17:05:04.810Z,41.46
2022-09-25T17:07:32.530Z,41.60
2022-09-25T17:10:01.569Z,41.65
2022-09-25T17:12:31.455Z,42.09
2022-09-25T17:14:59.475Z,42.74
2022-09-25T17:17:26.937Z,42.54
2022-09-25T17:19:54.196Z,42.37
2022-09-25T17:22:24.670Z,42.61
2022-09-25T17:24:52.095Z,42.28
2022-09-25T17:27:20.733Z,43.07
2022-09-25T17:29:48.180Z,42.91
2022-09-25T17:32:18.926Z,42.67
2022-09-25T17:34:46.908Z,43.33
2022-09-25T17:40:07.187Z,43.51
2022-09-25T17:42:35.852Z,43.15
2022-09-25T17:45:11.145Z,43.25
2022-09-25T17:47:38.529Z,42.69
2022-09-25T17:50:07.119Z,43.29
2022-09-25T17:52:34.405Z,43.46
2022-09-25T17:55:01.646Z,43.00
2022-09-25T17:57:29.504Z,43.35
2022-09-25T17:59:58.905Z,43.49
2022-09-25T18:02:29.027Z,43.28
2022-09-25T18:04:56.346Z,43.68
2022-09-25T18:07:23.741Z,43.36
2022-09-25T18:09:51.057Z,43.49
2022-09-25T18:12:18.279Z,43.62
2022-09-25T18:14:46.236Z,43.79
2022-09-25T18:17:15.904Z,43.65
2022-09-25T18:20:02.200Z,43.96
2022-09-25T18:22:29.458Z,44.27
2022-09-25T18:24:57.185Z,44.65
2022-09-25T18:27:28.263Z,44.81
2022-09-25T18:29:56.058Z,45.05
2022-09-25T18:32:24.981Z,44.95
2022-09-25T18:34:52.324Z,45.21
2022-09-25T18:37:20.555Z,45.20
2022-09-25T18:39:48.162Z,45.19
2022-09-25T18:42:15.800Z,45.58
2022-09-25T18:44:43.424Z,45.55
2022-09-25T18:47:11.303Z,45.68
2022-09-25T18:49:40.101Z,45.51
2022-09-25T18:52:07.465Z,46.17
2022-09-25T18:54:34.992Z,46.01
2022-09-25T18:57:02.536Z,46.35
2022-09-25T18:59:29.991Z,46.79
2022-09-25T19:01:57.583Z,47.09
2022-09-25T19:04:25.945Z,47.21
2022-09-25T19:06:54.639Z,47.34
2022-09-25T19:09:27.424Z,47.96
2022-09-25T19:11:55.381Z,47.72
2022-09-25T19:14:24.016Z,48.17
2022-09-25T19:16:53.124Z,48.00
2022-09-25T19:19:20.669Z,47.90
2022-09-25T19:21:48.169Z,48.34
2022-09-25T19:24:18.445Z,48.25
2022-09-25T19:26:45.792Z,48.24
2022-09-25T19:29:13.113Z,48.34
2022-09-25T19:31:41.147Z,48.40
2022-09-25T19:34:09.265Z,48.40
2022-09-25T19:36:37.809Z,48.57
2022-09-25T19:39:06.996Z,48.44
2022-09-25T19:41:37.966Z,48.86
2022-09-25T19:44:12.924Z,48.83
2022-09-25T19:46:41.968Z,48.80
2022-09-25T19:49:09.938Z,49.02
2022-09-25T19:51:39.202Z,49.27
2022-09-25T19:54:08.030Z,49.87
2022-09-25T19:56:40.743Z,50.14
2022-09-25T19:59:12.684Z,50.74
2022-09-25T20:01:40.714Z,51.29
2022-09-25T20:04:10.210Z,51.77
2022-09-25T20:06:39.447Z,51.56
2022-09-25T20:09:08.038Z,51.80
2022-09-25T20:11:36.771Z,51.73
2022-09-25T20:14:07.494Z,52.00
2022-09-25T20:16:37.305Z,51.94
2022-09-25T20:19:06.829Z,51.96
2022-09-25T20:21:37.163Z,51.73
2022-09-25T20:24:07.471Z,51.79
2022-09-25T20:26:36.730Z,51.69
2022-09-25T20:29:08.815Z,51.81
2022-09-25T20:31:39.188Z,51.84
2022-09-25T20:34:07.088Z,51.77
2022-09-25T20:36:36.283Z,51.68
2022-09-25T20:39:03.792Z,52.13
2022-09-25T20:41:31.470Z,51.93
2022-09-25T20:44:00.577Z,52.21
2022-09-25T20:46:28.183Z,52.10
2022-09-25T20:49:00.693Z,52.41
2022-09-25T20:51:30.903Z,52.18
2022-09-25T20:54:00.758Z,51.99
2022-09-25T20:56:30.242Z,52.08
2022-09-25T20:59:00.334Z,51.75
2022-09-25T21:01:30.745Z,52.12
2022-09-25T21:04:01.330Z,52.23
2022-09-25T21:06:32.423Z,52.43
2022-09-25T21:09:02.821Z,52.36
2022-09-25T21:11:33.000Z,52.24
2022-09-25T21:14:03.718Z,52.21
2022-09-25T21:16:33.483Z,52.45
2022-09-25T21:19:04.766Z,52.32
2022-09-25T21:21:34.391Z,52.20
2022-09-25T21:24:02.620Z,52.23
2022-09-25T21:26:32.674Z,52.25
2022-09-25T21:29:04.261Z,52.20
2022-09-25T21:31:35.357Z,52.20
2022-09-25T21:34:03.312Z,52.58
2022-09-25T21:36:31.414Z,53.15
2022-09-25T21:39:00.230Z,53.00
2022-09-25T21:41:30.034Z,53.64
2022-09-25T21:44:01.935Z,54.08
2022-09-25T21:46:30.010Z,54.61
2022-09-25T21:48:59.754Z,54.81
2022-09-25T21:51:29.639Z,55.17
2022-09-25T21:53:57.215Z,55.50
2022-09-25T21:56:26.936Z,55.72
2022-09-25T21:58:57.447Z,56.18
2022-09-25T22:01:28.627Z,56.37
2022-09-25T22:03:57.947Z,56.49
2022-09-25T22:06:28.351Z,56.83
2022-09-25T22:08:59.435Z,56.93
2022-09-25T22:11:28.216Z,56.72
2022-09-25T22:13:57.778Z,57.12
2022-09-25T22:16:30.350Z,57.11
2022-09-25T22:19:01.645Z,57.31
2022-09-25T22:21:31.576Z,57.41
2022-09-25T22:23:59.317Z,57.82
2022-09-25T22:26:28.248Z,57.94
2022-09-25T22:28:56.048Z,58.13
2022-09-25T22:31:27.292Z,58.29
2022-09-25T22:33:57.576Z,58.38
2022-09-25T22:36:27.358Z,58.54
2022-09-25T22:38:55.308Z,58.10
2022-09-25T22:41:24.387Z,57.65
2022-09-25T22:43:53.811Z,58.26
2022-09-25T22:46:23.978Z,58.22
2022-09-25T22:48:53.183Z,58.20
2022-09-25T22:51:22.622Z,58.24
2022-09-25T22:53:50.438Z,58.27
2022-09-25T22:56:20.574Z,58.48
2022-09-25T22:58:51.447Z,58.62
2022-09-25T23:01:23.026Z,58.51
2022-09-25T23:03:56.138Z,58.77
2022-09-25T23:06:24.392Z,58.78
2022-09-25T23:08:53.077Z,58.76
2022-09-25T23:11:21.882Z,58.73
2022-09-25T23:13:50.645Z,58.08
2022-09-25T23:16:18.501Z,58.50
2022-09-25T23:18:45.974Z,58.55
2022-09-25T23:21:14.604Z,58.26
2022-09-25T23:23:41.935Z,58.87
2022-09-25T23:26:09.466Z,58.85
2022-09-25T23:28:40.344Z,59.13
2022-09-25T23:31:11.013Z,58.89
2022-09-25T23:33:40.425Z,58.77
2022-09-25T23:36:11.916Z,58.81
2022-09-25T23:38:40.906Z,59.23
2022-09-25T23:41:17.446Z,58.85
2022-09-25T23:43:46.670Z,58.86
2022-09-25T23:46:16.356Z,59.05
2022-09-25T23:48:44.621Z,59.20
2022-09-25T23:51:13.763Z,58.84
2022-09-25T23:53:43.836Z,58.87
2022-09-25T23:56:14.203Z,58.94
2022-09-25T23:58:42.745Z,59.02
